sensor_id;sensor_type;location;lat;lon;timestamp;P1;durP1;ratioP1;P2;durP2;ratioP2
5890;SDS011;2971;52.420;7.080;2023-07-16T00:01:54;10.30;;;6.70;;
5890;SDS011;2971;52.420;7.080;2023-07-16T00:04:19;9.07;;;6.70;;
5890;SDS011;2971;52.420;7.080;2023-07-16T00:06:45;10.93;;;7.07;;
5890;SDS011;2971;52.420;7.080;2023-07-16T00:09:10;8.93;;;7.07;;
5890;SDS011;2971;52.420;7.080;2023-07-16T00:11:36;10.17;;;7.20;;
5890;SDS011;2971;52.420;7.080;2023-07-16T00:14:01;9.03;;;6.50;;
5890;SDS011;2971;52.420;7.080;2023-07-16T00:16:27;9.27;;;7.10;;
5890;SDS011;2971;52.420;7.080;2023-07-16T00:18:52;9.67;;;7.90;;
5890;SDS011;2971;52.420;7.080;2023-07-16T00:21:17;8.60;;;7.27;;
5890;SDS011;2971;52.420;7.080;2023-07-16T00:23:43;9.50;;;8.10;;
5890;SDS011;2971;52.420;7.080;2023-07-16T00:26:08;9.57;;;7.93;;
5890;SDS011;2971;52.420;7.080;2023-07-16T00:28:33;9.17;;;8.17;;
5890;SDS011;2971;52.420;7.080;2023-07-16T00:30:58;8.57;;;7.77;;
5890;SDS011;2971;52.420;7.080;2023-07-16T00:33:24;9.63;;;8.47;;
5890;SDS011;2971;52.420;7.080;2023-07-16T00:35:49;12.20;;;8.83;;
5890;SDS011;2971;52.420;7.080;2023-07-16T00:38:18;12.83;;;8.87;;
5890;SDS011;2971;52.420;7.080;2023-07-16T00:40:43;11.40;;;9.33;;
5890;SDS011;2971;52.420;7.080;2023-07-16T00:43:09;13.77;;;9.77;;
5890;SDS011;2971;52.420;7.080;2023-07-16T00:45:36;10.97;;;9.70;;
5890;SDS011;2971;52.420;7.080;2023-07-16T00:48:01;14.30;;;9.10;;
5890;SDS011;2971;52.420;7.080;2023-07-16T00:50:26;16.27;;;9.93;;
5890;SDS011;2971;52.420;7.080;2023-07-16T00:52:52;12.83;;;9.80;;
5890;SDS011;2971;52.420;7.080;2023-07-16T00:55:18;12.73;;;10.40;;
5890;SDS011;2971;52.420;7.080;2023-07-16T00:57:43;14.37;;;10.23;;
5890;SDS011;2971;52.420;7.080;2023-07-16T01:00:10;11.57;;;10.37;;
5890;SDS011;2971;52.420;7.080;2023-07-16T01:02:36;14.27;;;11.33;;
5890;SDS011;2971;52.420;7.080;2023-07-16T01:05:01;13.83;;;10.87;;
5890;SDS011;2971;52.420;7.080;2023-07-16T01:07:26;13.50;;;11.57;;
5890;SDS011;2971;52.420;7.080;2023-07-16T01:09:53;14.63;;;11.47;;
5890;SDS011;2971;52.420;7.080;2023-07-16T01:12:20;15.47;;;11.17;;
5890;SDS011;2971;52.420;7.080;2023-07-16T01:14:46;14.57;;;11.60;;
5890;SDS011;2971;52.420;7.080;2023-07-16T01:17:11;12.97;;;10.27;;
5890;SDS011;2971;52.420;7.080;2023-07-16T01:19:36;13.50;;;10.87;;
5890;SDS011;2971;52.420;7.080;2023-07-16T01:30:10;9.77;;;8.13;;
5890;SDS011;2971;52.420;7.080;2023-07-16T01:32:36;11.67;;;6.73;;
5890;SDS011;2971;52.420;7.080;2023-07-16T01:35:02;8.87;;;6.43;;
5890;SDS011;2971;52.420;7.080;2023-07-16T01:37:29;8.43;;;6.27;;
5890;SDS011;2971;52.420;7.080;2023-07-16T01:39:55;8.60;;;6.33;;
5890;SDS011;2971;52.420;7.080;2023-07-16T01:42:20;8.13;;;5.97;;
5890;SDS011;2971;52.420;7.080;2023-07-16T01:44:45;10.00;;;6.20;;
5890;SDS011;2971;52.420;7.080;2023-07-16T01:47:11;9.63;;;5.90;;
5890;SDS011;2971;52.420;7.080;2023-07-16T01:49:38;7.70;;;5.90;;
5890;SDS011;2971;52.420;7.080;2023-07-16T01:52:04;7.53;;;6.07;;
5890;SDS011;2971;52.420;7.080;2023-07-16T01:54:30;8.87;;;5.97;;
5890;SDS011;2971;52.420;7.080;2023-07-16T01:56:55;7.23;;;5.73;;
5890;SDS011;2971;52.420;7.080;2023-07-16T01:59:20;8.10;;;6.10;;
5890;SDS011;2971;52.420;7.080;2023-07-16T02:01:45;9.57;;;6.27;;
5890;SDS011;2971;52.420;7.080;2023-07-16T02:04:11;7.87;;;6.30;;
5890;SDS011;2971;52.420;7.080;2023-07-16T02:06:37;11.57;;;6.50;;
5890;SDS011;2971;52.420;7.080;2023-07-16T02:09:02;9.83;;;6.10;;
5890;SDS011;2971;52.420;7.080;2023-07-16T02:11:28;7.80;;;6.73;;
5890;SDS011;2971;52.420;7.080;2023-07-16T02:13:53;8.60;;;6.40;;
5890;SDS011;2971;52.420;7.080;2023-07-16T02:16:19;9.97;;;6.53;;
5890;SDS011;2971;52.420;7.080;2023-07-16T02:18:44;10.63;;;6.87;;
5890;SDS011;2971;52.420;7.080;2023-07-16T02:21:09;9.30;;;7.10;;
5890;SDS011;2971;52.420;7.080;2023-07-16T02:23:34;8.53;;;6.97;;
5890;SDS011;2971;52.420;7.080;2023-07-16T02:26:00;9.17;;;8.10;;
5890;SDS011;2971;52.420;7.080;2023-07-16T02:28:26;9.77;;;7.77;;
5890;SDS011;2971;52.420;7.080;2023-07-16T02:30:51;9.70;;;8.33;;
5890;SDS011;2971;52.420;7.080;2023-07-16T02:33:16;9.97;;;8.40;;
5890;SDS011;2971;52.420;7.080;2023-07-16T02:35:46;12.10;;;8.70;;
5890;SDS011;2971;52.420;7.080;2023-07-16T02:38:11;11.33;;;8.50;;
5890;SDS011;2971;52.420;7.080;2023-07-16T02:40:36;8.90;;;8.00;;
5890;SDS011;2971;52.420;7.080;2023-07-16T02:43:07;9.43;;;8.53;;
5890;SDS011;2971;52.420;7.080;2023-07-16T02:45:32;9.83;;;8.07;;
5890;SDS011;2971;52.420;7.080;2023-07-16T02:47:57;12.53;;;8.13;;
5890;SDS011;2971;52.420;7.080;2023-07-16T02:50:23;11.27;;;8.60;;
5890;SDS011;2971;52.420;7.080;2023-07-16T02:52:48;11.57;;;7.90;;
5890;SDS011;2971;52.420;7.080;2023-07-16T02:55:13;8.33;;;7.27;;
5890;SDS011;2971;52.420;7.080;2023-07-16T02:57:39;10.97;;;7.27;;
5890;SDS011;2971;52.420;7.080;2023-07-16T03:00:04;10.17;;;7.00;;
5890;SDS011;2971;52.420;7.080;2023-07-16T03:02:30;9.73;;;7.17;;
5890;SDS011;2971;52.420;7.080;2023-07-16T03:04:55;10.73;;;6.90;;
5890;SDS011;2971;52.420;7.080;2023-07-16T03:07:20;12.03;;;6.83;;
5890;SDS011;2971;52.420;7.080;2023-07-16T03:09:45;9.27;;;6.50;;
5890;SDS011;2971;52.420;7.080;2023-07-16T03:12:11;9.60;;;6.60;;
5890;SDS011;2971;52.420;7.080;2023-07-16T03:14:36;9.50;;;5.90;;
5890;SDS011;2971;52.420;7.080;2023-07-16T03:17:01;7.93;;;5.90;;
5890;SDS011;2971;52.420;7.080;2023-07-16T03:19:26;10.13;;;5.83;;
5890;SDS011;2971;52.420;7.080;2023-07-16T03:21:52;10.03;;;5.80;;
5890;SDS011;2971;52.420;7.080;2023-07-16T03:24:17;11.33;;;5.27;;
5890;SDS011;2971;52.420;7.080;2023-07-16T03:26:42;8.67;;;4.97;;
5890;SDS011;2971;52.420;7.080;2023-07-16T03:29:08;10.20;;;5.33;;
5890;SDS011;2971;52.420;7.080;2023-07-16T03:31:33;11.50;;;5.50;;
5890;SDS011;2971;52.420;7.080;2023-07-16T03:33:58;14.03;;;5.63;;
5890;SDS011;2971;52.420;7.080;2023-07-16T03:36:23;7.77;;;4.80;;
5890;SDS011;2971;52.420;7.080;2023-07-16T03:38:49;9.03;;;5.00;;
5890;SDS011;2971;52.420;7.080;2023-07-16T03:41:14;9.03;;;5.03;;
5890;SDS011;2971;52.420;7.080;2023-07-16T03:43:39;8.30;;;5.13;;
5890;SDS011;2971;52.420;7.080;2023-07-16T03:46:05;8.00;;;4.87;;
5890;SDS011;2971;52.420;7.080;2023-07-16T03:48:32;12.13;;;5.03;;
5890;SDS011;2971;52.420;7.080;2023-07-16T03:50:57;11.60;;;4.60;;
5890;SDS011;2971;52.420;7.080;2023-07-16T03:53:22;8.40;;;5.13;;
5890;SDS011;2971;52.420;7.080;2023-07-16T03:55:48;11.17;;;4.40;;
5890;SDS011;2971;52.420;7.080;2023-07-16T03:58:13;10.20;;;5.07;;
5890;SDS011;2971;52.420;7.080;2023-07-16T04:00:38;9.20;;;4.43;;
5890;SDS011;2971;52.420;7.080;2023-07-16T04:03:05;11.03;;;5.47;;
5890;SDS011;2971;52.420;7.080;2023-07-16T04:05:31;11.50;;;5.10;;
5890;SDS011;2971;52.420;7.080;2023-07-16T04:07:56;8.33;;;4.70;;
5890;SDS011;2971;52.420;7.080;2023-07-16T04:10:21;9.97;;;5.00;;
5890;SDS011;2971;52.420;7.080;2023-07-16T04:12:47;9.63;;;5.00;;
5890;SDS011;2971;52.420;7.080;2023-07-16T04:15:12;9.03;;;5.03;;
5890;SDS011;2971;52.420;7.080;2023-07-16T04:17:37;9.50;;;5.20;;
5890;SDS011;2971;52.420;7.080;2023-07-16T04:20:03;8.87;;;5.00;;
5890;SDS011;2971;52.420;7.080;2023-07-16T04:22:28;9.10;;;5.00;;
5890;SDS011;2971;52.420;7.080;2023-07-16T04:24:54;9.40;;;4.90;;
5890;SDS011;2971;52.420;7.080;2023-07-16T04:27:19;7.93;;;4.70;;
5890;SDS011;2971;52.420;7.080;2023-07-16T04:29:44;8.53;;;4.90;;
5890;SDS011;2971;52.420;7.080;2023-07-16T04:32:10;8.77;;;5.30;;
5890;SDS011;2971;52.420;7.080;2023-07-16T04:34:35;8.27;;;4.30;;
5890;SDS011;2971;52.420;7.080;2023-07-16T04:37:00;8.10;;;4.23;;
5890;SDS011;2971;52.420;7.080;2023-07-16T04:39:25;8.07;;;4.37;;
5890;SDS011;2971;52.420;7.080;2023-07-16T04:41:51;7.13;;;4.33;;
5890;SDS011;2971;52.420;7.080;2023-07-16T04:44:16;7.27;;;4.70;;
5890;SDS011;2971;52.420;7.080;2023-07-16T04:46:41;8.83;;;4.60;;
5890;SDS011;2971;52.420;7.080;2023-07-16T04:49:06;11.87;;;4.80;;
5890;SDS011;2971;52.420;7.080;2023-07-16T04:51:32;9.57;;;4.20;;
5890;SDS011;2971;52.420;7.080;2023-07-16T04:53:57;7.37;;;4.63;;
5890;SDS011;2971;52.420;7.080;2023-07-16T04:56:22;8.00;;;4.10;;
5890;SDS011;2971;52.420;7.080;2023-07-16T04:58:47;6.87;;;4.27;;
5890;SDS011;2971;52.420;7.080;2023-07-16T05:01:13;7.90;;;4.33;;
5890;SDS011;2971;52.420;7.080;2023-07-16T05:03:38;6.33;;;4.30;;
5890;SDS011;2971;52.420;7.080;2023-07-16T05:06:03;7.33;;;3.87;;
5890;SDS011;2971;52.420;7.080;2023-07-16T05:08:29;6.40;;;4.30;;
5890;SDS011;2971;52.420;7.080;2023-07-16T05:10:54;8.90;;;4.37;;
5890;SDS011;2971;52.420;7.080;2023-07-16T05:13:19;7.37;;;4.00;;
5890;SDS011;2971;52.420;7.080;2023-07-16T05:15:45;9.90;;;4.60;;
5890;SDS011;2971;52.420;7.080;2023-07-16T05:18:10;7.47;;;4.27;;
5890;SDS011;2971;52.420;7.080;2023-07-16T05:20:35;8.47;;;4.40;;
5890;SDS011;2971;52.420;7.080;2023-07-16T05:23:00;6.57;;;4.63;;
5890;SDS011;2971;52.420;7.080;2023-07-16T05:25:26;6.47;;;4.27;;
5890;SDS011;2971;52.420;7.080;2023-07-16T05:27:51;9.07;;;4.50;;
5890;SDS011;2971;52.420;7.080;2023-07-16T05:30:18;9.80;;;4.60;;
5890;SDS011;2971;52.420;7.080;2023-07-16T05:32:43;9.13;;;4.30;;
5890;SDS011;2971;52.420;7.080;2023-07-16T05:35:09;8.20;;;4.90;;
5890;SDS011;2971;52.420;7.080;2023-07-16T05:37:34;8.80;;;5.10;;
5890;SDS011;2971;52.420;7.080;2023-07-16T05:39:59;7.53;;;4.70;;
5890;SDS011;2971;52.420;7.080;2023-07-16T05:42:24;10.17;;;5.30;;
5890;SDS011;2971;52.420;7.080;2023-07-16T05:44:50;9.27;;;5.23;;
5890;SDS011;2971;52.420;7.080;2023-07-16T05:47:15;10.67;;;5.23;;
5890;SDS011;2971;52.420;7.080;2023-07-16T05:49:40;13.33;;;5.80;;
5890;SDS011;2971;52.420;7.080;2023-07-16T05:52:06;10.23;;;5.57;;
5890;SDS011;2971;52.420;7.080;2023-07-16T05:54:31;10.53;;;6.13;;
5890;SDS011;2971;52.420;7.080;2023-07-16T05:56:57;8.07;;;5.40;;
5890;SDS011;2971;52.420;7.080;2023-07-16T05:59:22;8.33;;;5.30;;
5890;SDS011;2971;52.420;7.080;2023-07-16T06:01:47;9.37;;;5.77;;
5890;SDS011;2971;52.420;7.080;2023-07-16T06:04:12;8.53;;;4.93;;
5890;SDS011;2971;52.420;7.080;2023-07-16T06:06:38;11.43;;;5.73;;
5890;SDS011;2971;52.420;7.080;2023-07-16T06:09:03;9.27;;;5.90;;
5890;SDS011;2971;52.420;7.080;2023-07-16T06:11:29;9.80;;;5.80;;
5890;SDS011;2971;52.420;7.080;2023-07-16T06:13:54;10.50;;;5.67;;
5890;SDS011;2971;52.420;7.080;2023-07-16T06:16:20;9.97;;;5.50;;
5890;SDS011;2971;52.420;7.080;2023-07-16T06:18:45;10.23;;;5.87;;
5890;SDS011;2971;52.420;7.080;2023-07-16T06:21:10;10.97;;;6.07;;
5890;SDS011;2971;52.420;7.080;2023-07-16T06:23:36;7.77;;;5.73;;
5890;SDS011;2971;52.420;7.080;2023-07-16T06:26:01;10.27;;;6.03;;
5890;SDS011;2971;52.420;7.080;2023-07-16T06:28:26;9.70;;;5.63;;
5890;SDS011;2971;52.420;7.080;2023-07-16T06:30:51;9.33;;;5.83;;
5890;SDS011;2971;52.420;7.080;2023-07-16T06:33:17;10.00;;;6.03;;
5890;SDS011;2971;52.420;7.080;2023-07-16T06:35:47;8.43;;;6.33;;
5890;SDS011;2971;52.420;7.080;2023-07-16T06:38:13;11.23;;;6.27;;
5890;SDS011;2971;52.420;7.080;2023-07-16T06:40:38;12.77;;;6.73;;
5890;SDS011;2971;52.420;7.080;2023-07-16T06:43:04;9.53;;;6.30;;
5890;SDS011;2971;52.420;7.080;2023-07-16T06:45:30;8.07;;;6.27;;
5890;SDS011;2971;52.420;7.080;2023-07-16T06:47:55;11.43;;;6.77;;
5890;SDS011;2971;52.420;7.080;2023-07-16T06:50:20;9.40;;;6.73;;
5890;SDS011;2971;52.420;7.080;2023-07-16T06:52:46;9.07;;;6.70;;
5890;SDS011;2971;52.420;7.080;2023-07-16T06:55:11;10.50;;;6.40;;
5890;SDS011;2971;52.420;7.080;2023-07-16T06:57:38;10.83;;;7.03;;
5890;SDS011;2971;52.420;7.080;2023-07-16T07:00:03;10.83;;;7.00;;
5890;SDS011;2971;52.420;7.080;2023-07-16T07:02:29;12.17;;;6.50;;
5890;SDS011;2971;52.420;7.080;2023-07-16T07:04:54;9.67;;;7.13;;
5890;SDS011;2971;52.420;7.080;2023-07-16T07:07:20;14.97;;;7.23;;
5890;SDS011;2971;52.420;7.080;2023-07-16T07:09:48;11.90;;;7.30;;
5890;SDS011;2971;52.420;7.080;2023-07-16T07:12:16;11.53;;;6.97;;
5890;SDS011;2971;52.420;7.080;2023-07-16T07:14:41;10.40;;;6.30;;
5890;SDS011;2971;52.420;7.080;2023-07-16T07:17:07;12.17;;;7.20;;
5890;SDS011;2971;52.420;7.080;2023-07-16T07:19:32;12.17;;;7.20;;
5890;SDS011;2971;52.420;7.080;2023-07-16T07:21:57;10.43;;;6.73;;
5890;SDS011;2971;52.420;7.080;2023-07-16T07:24:23;9.27;;;6.43;;
5890;SDS011;2971;52.420;7.080;2023-07-16T07:26:48;9.07;;;6.57;;
5890;SDS011;2971;52.420;7.080;2023-07-16T07:29:13;10.10;;;6.70;;
5890;SDS011;2971;52.420;7.080;2023-07-16T07:31:39;13.77;;;6.33;;
5890;SDS011;2971;52.420;7.080;2023-07-16T07:34:04;10.97;;;6.90;;
5890;SDS011;2971;52.420;7.080;2023-07-16T07:36:29;12.43;;;6.67;;
5890;SDS011;2971;52.420;7.080;2023-07-16T07:38:55;10.00;;;6.40;;
5890;SDS011;2971;52.420;7.080;2023-07-16T07:41:20;13.33;;;6.47;;
5890;SDS011;2971;52.420;7.080;2023-07-16T07:43:45;11.63;;;6.40;;
5890;SDS011;2971;52.420;7.080;2023-07-16T07:46:11;12.80;;;6.03;;
5890;SDS011;2971;52.420;7.080;2023-07-16T07:48:36;9.27;;;6.07;;
5890;SDS011;2971;52.420;7.080;2023-07-16T07:51:01;12.27;;;6.07;;
5890;SDS011;2971;52.420;7.080;2023-07-16T07:53:27;11.57;;;6.23;;
5890;SDS011;2971;52.420;7.080;2023-07-16T07:55:52;10.30;;;6.17;;
5890;SDS011;2971;52.420;7.080;2023-07-16T07:58:19;9.60;;;6.10;;
5890;SDS011;2971;52.420;7.080;2023-07-16T08:00:44;9.03;;;6.33;;
5890;SDS011;2971;52.420;7.080;2023-07-16T08:03:09;9.63;;;6.17;;
5890;SDS011;2971;52.420;7.080;2023-07-16T08:05:35;10.97;;;5.97;;
5890;SDS011;2971;52.420;7.080;2023-07-16T08:08:00;9.77;;;6.17;;
5890;SDS011;2971;52.420;7.080;2023-07-16T08:10:25;11.10;;;7.03;;
5890;SDS011;2971;52.420;7.080;2023-07-16T08:12:51;13.60;;;6.43;;
5890;SDS011;2971;52.420;7.080;2023-07-16T08:15:17;10.63;;;6.33;;
5890;SDS011;2971;52.420;7.080;2023-07-16T08:17:42;8.63;;;6.10;;
5890;SDS011;2971;52.420;7.080;2023-07-16T08:20:08;9.40;;;6.40;;
5890;SDS011;2971;52.420;7.080;2023-07-16T08:22:34;9.77;;;5.80;;
5890;SDS011;2971;52.420;7.080;2023-07-16T08:24:59;10.90;;;5.83;;
5890;SDS011;2971;52.420;7.080;2023-07-16T08:27:24;9.23;;;6.20;;
5890;SDS011;2971;52.420;7.080;2023-07-16T08:29:49;11.07;;;5.87;;
5890;SDS011;2971;52.420;7.080;2023-07-16T08:32:15;9.43;;;5.70;;
5890;SDS011;2971;52.420;7.080;2023-07-16T08:34:40;9.57;;;5.70;;
5890;SDS011;2971;52.420;7.080;2023-07-16T08:37:05;9.93;;;5.63;;
5890;SDS011;2971;52.420;7.080;2023-07-16T08:39:31;10.17;;;5.57;;
5890;SDS011;2971;52.420;7.080;2023-07-16T08:41:56;8.43;;;5.27;;
5890;SDS011;2971;52.420;7.080;2023-07-16T08:44:21;9.50;;;5.80;;
5890;SDS011;2971;52.420;7.080;2023-07-16T08:46:47;8.87;;;5.80;;
5890;SDS011;2971;52.420;7.080;2023-07-16T08:49:12;9.97;;;5.97;;
5890;SDS011;2971;52.420;7.080;2023-07-16T08:51:37;9.47;;;5.43;;
5890;SDS011;2971;52.420;7.080;2023-07-16T08:54:04;8.57;;;5.47;;
5890;SDS011;2971;52.420;7.080;2023-07-16T08:56:29;7.47;;;5.77;;
5890;SDS011;2971;52.420;7.080;2023-07-16T08:58:54;12.23;;;5.87;;
5890;SDS011;2971;52.420;7.080;2023-07-16T09:01:22;9.77;;;5.80;;
5890;SDS011;2971;52.420;7.080;2023-07-16T09:03:48;10.17;;;5.93;;
5890;SDS011;2971;52.420;7.080;2023-07-16T09:06:13;8.00;;;5.30;;
5890;SDS011;2971;52.420;7.080;2023-07-16T09:08:38;9.00;;;4.97;;
5890;SDS011;2971;52.420;7.080;2023-07-16T09:11:04;8.90;;;5.17;;
5890;SDS011;2971;52.420;7.080;2023-07-16T09:13:29;9.33;;;5.57;;
5890;SDS011;2971;52.420;7.080;2023-07-16T09:15:55;10.53;;;5.67;;
5890;SDS011;2971;52.420;7.080;2023-07-16T09:18:21;7.43;;;5.17;;
5890;SDS011;2971;52.420;7.080;2023-07-16T09:20:47;10.40;;;5.77;;
5890;SDS011;2971;52.420;7.080;2023-07-16T09:23:12;9.93;;;5.07;;
5890;SDS011;2971;52.420;7.080;2023-07-16T09:25:37;12.13;;;4.90;;
5890;SDS011;2971;52.420;7.080;2023-07-16T09:28:04;12.80;;;4.57;;
5890;SDS011;2971;52.420;7.080;2023-07-16T09:30:31;8.20;;;4.40;;
5890;SDS011;2971;52.420;7.080;2023-07-16T09:32:57;8.33;;;5.20;;
5890;SDS011;2971;52.420;7.080;2023-07-16T09:35:22;8.70;;;4.37;;
5890;SDS011;2971;52.420;7.080;2023-07-16T09:37:47;8.83;;;5.03;;
5890;SDS011;2971;52.420;7.080;2023-07-16T09:40:13;7.40;;;5.03;;
5890;SDS011;2971;52.420;7.080;2023-07-16T09:42:39;10.07;;;5.10;;
5890;SDS011;2971;52.420;7.080;2023-07-16T09:45:08;6.00;;;4.57;;
5890;SDS011;2971;52.420;7.080;2023-07-16T09:47:34;10.67;;;5.67;;
5890;SDS011;2971;52.420;7.080;2023-07-16T09:49:59;13.27;;;5.47;;
5890;SDS011;2971;52.420;7.080;2023-07-16T09:52:25;9.33;;;5.13;;
5890;SDS011;2971;52.420;7.080;2023-07-16T09:54:51;7.57;;;5.17;;
5890;SDS011;2971;52.420;7.080;2023-07-16T09:57:17;10.07;;;5.00;;
5890;SDS011;2971;52.420;7.080;2023-07-16T09:59:43;9.67;;;5.20;;
5890;SDS011;2971;52.420;7.080;2023-07-16T10:02:09;7.80;;;4.77;;
5890;SDS011;2971;52.420;7.080;2023-07-16T10:04:37;9.30;;;4.87;;
5890;SDS011;2971;52.420;7.080;2023-07-16T10:07:04;9.37;;;5.43;;
5890;SDS011;2971;52.420;7.080;2023-07-16T10:17:49;9.43;;;5.50;;
5890;SDS011;2971;52.420;7.080;2023-07-16T10:20:03;8.83;;;5.43;;
5890;SDS011;2971;52.420;7.080;2023-07-16T10:22:47;8.47;;;5.73;;
5890;SDS011;2971;52.420;7.080;2023-07-16T10:27:44;9.10;;;4.90;;
5890;SDS011;2971;52.420;7.080;2023-07-16T10:30:10;8.00;;;5.43;;
5890;SDS011;2971;52.420;7.080;2023-07-16T10:32:35;11.27;;;5.17;;
5890;SDS011;2971;52.420;7.080;2023-07-16T10:35:01;8.17;;;4.70;;
5890;SDS011;2971;52.420;7.080;2023-07-16T10:37:27;8.43;;;5.60;;
5890;SDS011;2971;52.420;7.080;2023-07-16T10:39:53;6.83;;;4.73;;
5890;SDS011;2971;52.420;7.080;2023-07-16T10:42:22;9.23;;;4.70;;
5890;SDS011;2971;52.420;7.080;2023-07-16T10:44:48;14.90;;;4.87;;
5890;SDS011;2971;52.420;7.080;2023-07-16T10:47:18;11.93;;;4.80;;
5890;SDS011;2971;52.420;7.080;2023-07-16T10:49:45;6.83;;;4.53;;
5890;SDS011;2971;52.420;7.080;2023-07-16T10:52:10;9.70;;;4.83;;
5890;SDS011;2971;52.420;7.080;2023-07-16T10:54:35;10.27;;;5.17;;
5890;SDS011;2971;52.420;7.080;2023-07-16T10:57:00;8.40;;;4.60;;
5890;SDS011;2971;52.420;7.080;2023-07-16T10:59:26;9.30;;;4.80;;
5890;SDS011;2971;52.420;7.080;2023-07-16T11:01:51;7.57;;;4.87;;
5890;SDS011;2971;52.420;7.080;2023-07-16T11:04:16;7.63;;;4.93;;
5890;SDS011;2971;52.420;7.080;2023-07-16T11:06:41;9.47;;;4.80;;
5890;SDS011;2971;52.420;7.080;2023-07-16T11:09:10;7.17;;;4.43;;
5890;SDS011;2971;52.420;7.080;2023-07-16T11:11:36;6.60;;;4.47;;
5890;SDS011;2971;52.420;7.080;2023-07-16T11:14:07;8.43;;;4.77;;
5890;SDS011;2971;52.420;7.080;2023-07-16T11:16:36;10.20;;;5.00;;
5890;SDS011;2971;52.420;7.080;2023-07-16T11:19:03;8.17;;;4.90;;
5890;SDS011;2971;52.420;7.080;2023-07-16T11:21:29;8.20;;;4.77;;
5890;SDS011;2971;52.420;7.080;2023-07-16T11:23:54;8.83;;;4.40;;
5890;SDS011;2971;52.420;7.080;2023-07-16T11:26:20;7.30;;;4.67;;
5890;SDS011;2971;52.420;7.080;2023-07-16T11:28:45;9.57;;;4.70;;
5890;SDS011;2971;52.420;7.080;2023-07-16T11:31:14;9.20;;;4.63;;
5890;SDS011;2971;52.420;7.080;2023-07-16T11:33:43;8.13;;;4.53;;
5890;SDS011;2971;52.420;7.080;2023-07-16T11:36:08;9.57;;;4.70;;
5890;SDS011;2971;52.420;7.080;2023-07-16T11:38:37;6.13;;;4.40;;
5890;SDS011;2971;52.420;7.080;2023-07-16T11:41:02;10.20;;;5.10;;
5890;SDS011;2971;52.420;7.080;2023-07-16T11:43:28;7.07;;;4.27;;
5890;SDS011;2971;52.420;7.080;2023-07-16T11:45:53;7.47;;;4.60;;
5890;SDS011;2971;52.420;7.080;2023-07-16T11:48:18;6.40;;;4.50;;
5890;SDS011;2971;52.420;7.080;2023-07-16T11:50:44;6.93;;;4.47;;
5890;SDS011;2971;52.420;7.080;2023-07-16T11:53:10;8.37;;;4.67;;
5890;SDS011;2971;52.420;7.080;2023-07-16T11:55:35;7.43;;;4.83;;
5890;SDS011;2971;52.420;7.080;2023-07-16T11:58:01;8.30;;;4.17;;
5890;SDS011;2971;52.420;7.080;2023-07-16T12:00:27;7.37;;;4.17;;
5890;SDS011;2971;52.420;7.080;2023-07-16T12:02:53;6.27;;;4.30;;
5890;SDS011;2971;52.420;7.080;2023-07-16T12:05:18;8.47;;;4.53;;
5890;SDS011;2971;52.420;7.080;2023-07-16T12:07:44;7.90;;;4.53;;
5890;SDS011;2971;52.420;7.080;2023-07-16T12:10:09;6.10;;;4.03;;
5890;SDS011;2971;52.420;7.080;2023-07-16T12:12:34;10.70;;;4.47;;
5890;SDS011;2971;52.420;7.080;2023-07-16T12:15:03;6.30;;;4.63;;
5890;SDS011;2971;52.420;7.080;2023-07-16T12:17:28;7.07;;;4.43;;
5890;SDS011;2971;52.420;7.080;2023-07-16T12:19:53;7.43;;;4.20;;
5890;SDS011;2971;52.420;7.080;2023-07-16T12:22:19;8.67;;;3.83;;
5890;SDS011;2971;52.420;7.080;2023-07-16T12:24:44;5.83;;;4.13;;
5890;SDS011;2971;52.420;7.080;2023-07-16T12:27:10;7.83;;;4.17;;
5890;SDS011;2971;52.420;7.080;2023-07-16T12:29:35;7.10;;;4.13;;
5890;SDS011;2971;52.420;7.080;2023-07-16T12:32:00;8.07;;;4.43;;
5890;SDS011;2971;52.420;7.080;2023-07-16T12:34:26;5.47;;;3.70;;
5890;SDS011;2971;52.420;7.080;2023-07-16T12:36:51;8.33;;;4.17;;
5890;SDS011;2971;52.420;7.080;2023-07-16T12:39:17;7.40;;;4.50;;
5890;SDS011;2971;52.420;7.080;2023-07-16T12:41:43;8.40;;;4.10;;
5890;SDS011;2971;52.420;7.080;2023-07-16T12:44:08;7.73;;;3.97;;
5890;SDS011;2971;52.420;7.080;2023-07-16T12:46:33;6.20;;;3.60;;
5890;SDS011;2971;52.420;7.080;2023-07-16T12:49:01;6.87;;;4.07;;
5890;SDS011;2971;52.420;7.080;2023-07-16T12:51:27;6.90;;;3.97;;
5890;SDS011;2971;52.420;7.080;2023-07-16T12:53:52;7.37;;;4.23;;
5890;SDS011;2971;52.420;7.080;2023-07-16T12:56:17;6.87;;;4.60;;
5890;SDS011;2971;52.420;7.080;2023-07-16T12:58:43;6.37;;;4.10;;
5890;SDS011;2971;52.420;7.080;2023-07-16T13:01:08;7.47;;;4.30;;
5890;SDS011;2971;52.420;7.080;2023-07-16T13:03:33;9.10;;;4.70;;
5890;SDS011;2971;52.420;7.080;2023-07-16T13:05:58;7.57;;;4.90;;
5890;SDS011;2971;52.420;7.080;2023-07-16T13:08:24;6.93;;;4.30;;
5890;SDS011;2971;52.420;7.080;2023-07-16T13:10:49;4.90;;;3.90;;
5890;SDS011;2971;52.420;7.080;2023-07-16T13:13:14;6.27;;;4.40;;
5890;SDS011;2971;52.420;7.080;2023-07-16T13:15:40;4.67;;;3.70;;
5890;SDS011;2971;52.420;7.080;2023-07-16T13:18:07;6.30;;;4.10;;
5890;SDS011;2971;52.420;7.080;2023-07-16T13:20:34;7.70;;;3.83;;
5890;SDS011;2971;52.420;7.080;2023-07-16T13:22:59;7.53;;;4.00;;
5890;SDS011;2971;52.420;7.080;2023-07-16T13:25:25;6.60;;;4.03;;
5890;SDS011;2971;52.420;7.080;2023-07-16T13:27:50;7.60;;;4.00;;
5890;SDS011;2971;52.420;7.080;2023-07-16T13:30:17;5.80;;;3.97;;
5890;SDS011;2971;52.420;7.080;2023-07-16T13:32:43;5.83;;;3.90;;
5890;SDS011;2971;52.420;7.080;2023-07-16T13:35:08;7.37;;;4.27;;
5890;SDS011;2971;52.420;7.080;2023-07-16T13:37:33;5.80;;;3.73;;
5890;SDS011;2971;52.420;7.080;2023-07-16T13:39:59;9.27;;;4.07;;
5890;SDS011;2971;52.420;7.080;2023-07-16T13:42:24;6.10;;;3.50;;
5890;SDS011;2971;52.420;7.080;2023-07-16T13:44:50;5.37;;;4.00;;
5890;SDS011;2971;52.420;7.080;2023-07-16T13:47:15;6.93;;;4.20;;
5890;SDS011;2971;52.420;7.080;2023-07-16T13:49:40;7.67;;;4.10;;
5890;SDS011;2971;52.420;7.080;2023-07-16T13:52:05;5.83;;;4.00;;
5890;SDS011;2971;52.420;7.080;2023-07-16T13:54:31;5.50;;;4.10;;
5890;SDS011;2971;52.420;7.080;2023-07-16T13:56:56;5.03;;;4.00;;
5890;SDS011;2971;52.420;7.080;2023-07-16T13:59:21;6.27;;;3.80;;
5890;SDS011;2971;52.420;7.080;2023-07-16T14:01:46;6.90;;;3.80;;
5890;SDS011;2971;52.420;7.080;2023-07-16T14:04:12;5.57;;;3.70;;
5890;SDS011;2971;52.420;7.080;2023-07-16T14:06:37;6.00;;;3.90;;
5890;SDS011;2971;52.420;7.080;2023-07-16T14:09:02;5.10;;;3.65;;
5890;SDS011;2971;52.420;7.080;2023-07-16T14:11:29;9.07;;;4.00;;
5890;SDS011;2971;52.420;7.080;2023-07-16T14:13:55;7.20;;;4.15;;
5890;SDS011;2971;52.420;7.080;2023-07-16T14:16:20;4.65;;;3.67;;
5890;SDS011;2971;52.420;7.080;2023-07-16T14:18:49;5.90;;;3.83;;
5890;SDS011;2971;52.420;7.080;2023-07-16T14:21:15;5.40;;;4.35;;
5890;SDS011;2971;52.420;7.080;2023-07-16T14:23:40;7.35;;;4.10;;
5890;SDS011;2971;52.420;7.080;2023-07-16T14:26:06;6.10;;;3.90;;
5890;SDS011;2971;52.420;7.080;2023-07-16T14:28:31;7.77;;;4.47;;
5890;SDS011;2971;52.420;7.080;2023-07-16T14:30:56;5.97;;;4.47;;
5890;SDS011;2971;52.420;7.080;2023-07-16T14:33:21;8.37;;;4.50;;
5890;SDS011;2971;52.420;7.080;2023-07-16T14:35:47;6.20;;;4.30;;
5890;SDS011;2971;52.420;7.080;2023-07-16T14:38:12;6.70;;;4.33;;
5890;SDS011;2971;52.420;7.080;2023-07-16T14:40:37;5.53;;;3.80;;
5890;SDS011;2971;52.420;7.080;2023-07-16T14:43:03;6.47;;;4.03;;
5890;SDS011;2971;52.420;7.080;2023-07-16T14:45:29;6.75;;;4.00;;
5890;SDS011;2971;52.420;7.080;2023-07-16T14:47:54;8.32;;;4.40;;
5890;SDS011;2971;52.420;7.080;2023-07-16T14:50:20;6.18;;;3.78;;
5890;SDS011;2971;52.420;7.080;2023-07-16T14:52:45;5.25;;;3.80;;
5890;SDS011;2971;52.420;7.080;2023-07-16T14:55:10;8.73;;;4.13;;
5890;SDS011;2971;52.420;7.080;2023-07-16T14:57:36;6.57;;;3.80;;
5890;SDS011;2971;52.420;7.080;2023-07-16T15:00:01;6.07;;;4.17;;
5890;SDS011;2971;52.420;7.080;2023-07-16T15:02:29;6.23;;;4.10;;
5890;SDS011;2971;52.420;7.080;2023-07-16T15:04:54;6.63;;;4.23;;
5890;SDS011;2971;52.420;7.080;2023-07-16T15:07:19;4.60;;;3.50;;
5890;SDS011;2971;52.420;7.080;2023-07-16T15:09:45;6.80;;;4.13;;
5890;SDS011;2971;52.420;7.080;2023-07-16T15:12:10;6.30;;;4.00;;
5890;SDS011;2971;52.420;7.080;2023-07-16T15:14:36;8.20;;;4.10;;
5890;SDS011;2971;52.420;7.080;2023-07-16T15:17:01;5.70;;;3.53;;
5890;SDS011;2971;52.420;7.080;2023-07-16T15:19:26;4.97;;;3.60;;